<?xml version="1.0" encoding="UTF-8" standalone="no" ?>
<gpx xmlns="http://www.topografix.com/GPX/1/1" xmlns:xsi="http://www.w3.org/2001/XMLSchema-instance" xsi:schemaLocation="http://www.topografix.com/GPX/1/1 http://www.topografix.com/GPX/1/1/gpx.xsd" version="1.1" creator="VisuGPX - https://www.visugpx.com">
  <metadata>
    <name>Montaigu à Hautacam</name>
    <desc><![CDATA[Reco GRP 2011 entre le Montaigu et Hautacam]]></desc>
  </metadata>
  <trk>
    <name><![CDATA[2011-07-05 13:36]]></name>
    <desc><![CDATA[<h1>OruxMaps</h1><br /><h2>Nom: 2011-07-05 13:36</h2><br /><p>Temps de départ: 07/05/2011 13:36</p><p>Temps d'arrivée: 07/05/2011 15:34</p><p>Distance: 10 km (01:57)</p><p>Temps déplacement: 01:36</p><p>Vitesse moyenne: 5,1 km/h</p><p>Vitesse moyenne6,3 km/h</p><p>Vitess Max.: 15,4 km/h</p><p>Gain Altitude: 1662 m</p><p>Perte Altitude: 2336 m</p><p>Vitesse d'élévation: 567,4 m/h</p><p>Vitesse de descente: -963,9 m/h</p><p>Altitude maximale: 389 m</p><p>Altitude minimale: -1063 m</p><p>Temps d'élévation: 00:41</p><p>Temps de descente: 01:06</p>]]></desc>
    <trkseg>
      <trkpt lat="42.98353" lon="0.0687">
        <ele>2336</ele>
        <time>2011-07-05T11:36:38Z</time>
      </trkpt>
      <trkpt lat="42.98359" lon="0.06847">
        <ele>2334</ele>
        <time>2011-07-05T11:38:50Z</time>
      </trkpt>
      <trkpt lat="42.98377" lon="0.06843">
        <ele>2332</ele>
        <time>2011-07-05T11:39:24Z</time>
      </trkpt>
      <trkpt lat="42.98396" lon="0.06847">
        <ele>2326</ele>
        <time>2011-07-05T11:40:03Z</time>
      </trkpt>
      <trkpt lat="42.98413" lon="0.06839">
        <ele>2322</ele>
        <time>2011-07-05T11:40:25Z</time>
      </trkpt>
      <trkpt lat="42.98431" lon="0.06841">
        <ele>2315</ele>
        <time>2011-07-05T11:41:02Z</time>
      </trkpt>
      <trkpt lat="42.98451" lon="0.06836">
        <ele>2307</ele>
        <time>2011-07-05T11:41:24Z</time>
      </trkpt>
      <trkpt lat="42.98459" lon="0.06814">
        <ele>2296</ele>
        <time>2011-07-05T11:42:03Z</time>
      </trkpt>
      <trkpt lat="42.98477" lon="0.06814">
        <ele>2285</ele>
        <time>2011-07-05T11:42:29Z</time>
      </trkpt>
      <trkpt lat="42.98496" lon="0.06811">
        <ele>2274</ele>
        <time>2011-07-05T11:42:51Z</time>
      </trkpt>
      <trkpt lat="42.98514" lon="0.06815">
        <ele>2264</ele>
        <time>2011-07-05T11:43:09Z</time>
      </trkpt>
      <trkpt lat="42.98533" lon="0.06813">
        <ele>2257</ele>
        <time>2011-07-05T11:43:31Z</time>
      </trkpt>
      <trkpt lat="42.98551" lon="0.06817">
        <ele>2250</ele>
        <time>2011-07-05T11:43:54Z</time>
      </trkpt>
      <trkpt lat="42.98563" lon="0.06798">
        <ele>2243</ele>
        <time>2011-07-05T11:44:26Z</time>
      </trkpt>
      <trkpt lat="42.9858" lon="0.06787">
        <ele>2235</ele>
        <time>2011-07-05T11:45:01Z</time>
      </trkpt>
      <trkpt lat="42.98595" lon="0.06766">
        <ele>2222</ele>
        <time>2011-07-05T11:45:44Z</time>
      </trkpt>
      <trkpt lat="42.9861" lon="0.06752">
        <ele>2209</ele>
        <time>2011-07-05T11:46:16Z</time>
      </trkpt>
      <trkpt lat="42.98629" lon="0.06747">
        <ele>2196</ele>
        <time>2011-07-05T11:46:31Z</time>
      </trkpt>
      <trkpt lat="42.9865" lon="0.06745">
        <ele>2188</ele>
        <time>2011-07-05T11:46:41Z</time>
      </trkpt>
      <trkpt lat="42.98669" lon="0.06737">
        <ele>2183</ele>
        <time>2011-07-05T11:46:51Z</time>
      </trkpt>
      <trkpt lat="42.98689" lon="0.06727">
        <ele>2179</ele>
        <time>2011-07-05T11:46:59Z</time>
      </trkpt>
      <trkpt lat="42.98708" lon="0.06715">
        <ele>2176</ele>
        <time>2011-07-05T11:47:06Z</time>
      </trkpt>
      <trkpt lat="42.98728" lon="0.06704">
        <ele>2174</ele>
        <time>2011-07-05T11:47:15Z</time>
      </trkpt>
      <trkpt lat="42.9875" lon="0.06687">
        <ele>2171</ele>
        <time>2011-07-05T11:47:28Z</time>
      </trkpt>
      <trkpt lat="42.98769" lon="0.06695">
        <ele>2168</ele>
        <time>2011-07-05T11:47:47Z</time>
      </trkpt>
      <trkpt lat="42.98788" lon="0.06692">
        <ele>2164</ele>
        <time>2011-07-05T11:48:21Z</time>
      </trkpt>
      <trkpt lat="42.98804" lon="0.06681">
        <ele>2155</ele>
        <time>2011-07-05T11:49:05Z</time>
      </trkpt>
      <trkpt lat="42.9882" lon="0.06666">
        <ele>2145</ele>
        <time>2011-07-05T11:49:31Z</time>
      </trkpt>
      <trkpt lat="42.98835" lon="0.06651">
        <ele>2131</ele>
        <time>2011-07-05T11:49:59Z</time>
      </trkpt>
      <trkpt lat="42.98852" lon="0.06639">
        <ele>2121</ele>
        <time>2011-07-05T11:50:13Z</time>
      </trkpt>
      <trkpt lat="42.98868" lon="0.06624">
        <ele>2112</ele>
        <time>2011-07-05T11:50:36Z</time>
      </trkpt>
      <trkpt lat="42.98883" lon="0.06606">
        <ele>2106</ele>
        <time>2011-07-05T11:50:44Z</time>
      </trkpt>
      <trkpt lat="42.98898" lon="0.0659">
        <ele>2100</ele>
        <time>2011-07-05T11:50:56Z</time>
      </trkpt>
      <trkpt lat="42.98914" lon="0.06575">
        <ele>2097</ele>
        <time>2011-07-05T11:51:03Z</time>
      </trkpt>
      <trkpt lat="42.98931" lon="0.06566">
        <ele>2095</ele>
        <time>2011-07-05T11:51:12Z</time>
      </trkpt>
      <trkpt lat="42.98946" lon="0.06547">
        <ele>2092</ele>
        <time>2011-07-05T11:51:24Z</time>
      </trkpt>
      <trkpt lat="42.98959" lon="0.0653">
        <ele>2088</ele>
        <time>2011-07-05T11:51:40Z</time>
      </trkpt>
      <trkpt lat="42.98971" lon="0.06509">
        <ele>2085</ele>
        <time>2011-07-05T11:51:59Z</time>
      </trkpt>
      <trkpt lat="42.9899" lon="0.06506">
        <ele>2082</ele>
        <time>2011-07-05T11:52:12Z</time>
      </trkpt>
      <trkpt lat="42.99007" lon="0.06516">
        <ele>2076</ele>
        <time>2011-07-05T11:52:58Z</time>
      </trkpt>
      <trkpt lat="42.9901" lon="0.06543">
        <ele>2068</ele>
        <time>2011-07-05T11:53:12Z</time>
      </trkpt>
      <trkpt lat="42.99023" lon="0.06561">
        <ele>2057</ele>
        <time>2011-07-05T11:53:28Z</time>
      </trkpt>
      <trkpt lat="42.99042" lon="0.06568">
        <ele>2047</ele>
        <time>2011-07-05T11:53:41Z</time>
      </trkpt>
      <trkpt lat="42.99054" lon="0.06589">
        <ele>2037</ele>
        <time>2011-07-05T11:53:57Z</time>
      </trkpt>
      <trkpt lat="42.99056" lon="0.06614">
        <ele>2030</ele>
        <time>2011-07-05T11:54:05Z</time>
      </trkpt>
      <trkpt lat="42.99063" lon="0.06638">
        <ele>2024</ele>
        <time>2011-07-05T11:54:13Z</time>
      </trkpt>
      <trkpt lat="42.99066" lon="0.06665">
        <ele>2020</ele>
        <time>2011-07-05T11:54:21Z</time>
      </trkpt>
      <trkpt lat="42.99067" lon="0.06691">
        <ele>2016</ele>
        <time>2011-07-05T11:54:29Z</time>
      </trkpt>
      <trkpt lat="42.99077" lon="0.06718">
        <ele>2010</ele>
        <time>2011-07-05T11:54:39Z</time>
      </trkpt>
      <trkpt lat="42.99081" lon="0.06743">
        <ele>2004</ele>
        <time>2011-07-05T11:54:48Z</time>
      </trkpt>
      <trkpt lat="42.99099" lon="0.06743">
        <ele>2000</ele>
        <time>2011-07-05T11:55:00Z</time>
      </trkpt>
      <trkpt lat="42.99122" lon="0.06747">
        <ele>1997</ele>
        <time>2011-07-05T11:55:18Z</time>
      </trkpt>
      <trkpt lat="42.99139" lon="0.06738">
        <ele>1993</ele>
        <time>2011-07-05T11:55:27Z</time>
      </trkpt>
      <trkpt lat="42.99151" lon="0.06717">
        <ele>1988</ele>
        <time>2011-07-05T11:55:33Z</time>
      </trkpt>
      <trkpt lat="42.99157" lon="0.06694">
        <ele>1983</ele>
        <time>2011-07-05T11:55:40Z</time>
      </trkpt>
      <trkpt lat="42.99178" lon="0.06688">
        <ele>1980</ele>
        <time>2011-07-05T11:55:57Z</time>
      </trkpt>
      <trkpt lat="42.99196" lon="0.06693">
        <ele>1977</ele>
        <time>2011-07-05T11:56:10Z</time>
      </trkpt>
      <trkpt lat="42.99215" lon="0.067">
        <ele>1973</ele>
        <time>2011-07-05T11:56:27Z</time>
      </trkpt>
      <trkpt lat="42.99236" lon="0.06694">
        <ele>1966</ele>
        <time>2011-07-05T11:56:49Z</time>
      </trkpt>
      <trkpt lat="42.99256" lon="0.06699">
        <ele>1957</ele>
        <time>2011-07-05T11:57:02Z</time>
      </trkpt>
      <trkpt lat="42.99274" lon="0.06695">
        <ele>1948</ele>
        <time>2011-07-05T11:57:23Z</time>
      </trkpt>
      <trkpt lat="42.99292" lon="0.06692">
        <ele>1939</ele>
        <time>2011-07-05T11:57:43Z</time>
      </trkpt>
      <trkpt lat="42.99311" lon="0.06684">
        <ele>1931</ele>
        <time>2011-07-05T11:58:08Z</time>
      </trkpt>
      <trkpt lat="42.99328" lon="0.06678">
        <ele>1923</ele>
        <time>2011-07-05T11:58:36Z</time>
      </trkpt>
      <trkpt lat="42.99346" lon="0.06669">
        <ele>1911</ele>
        <time>2011-07-05T11:59:03Z</time>
      </trkpt>
      <trkpt lat="42.99364" lon="0.06662">
        <ele>1899</ele>
        <time>2011-07-05T11:59:25Z</time>
      </trkpt>
      <trkpt lat="42.99383" lon="0.06662">
        <ele>1888</ele>
        <time>2011-07-05T11:59:41Z</time>
      </trkpt>
      <trkpt lat="42.99401" lon="0.06661">
        <ele>1878</ele>
        <time>2011-07-05T12:00:01Z</time>
      </trkpt>
      <trkpt lat="42.99419" lon="0.06655">
        <ele>1866</ele>
        <time>2011-07-05T12:00:36Z</time>
      </trkpt>
      <trkpt lat="42.99437" lon="0.06649">
        <ele>1853</ele>
        <time>2011-07-05T12:01:03Z</time>
      </trkpt>
      <trkpt lat="42.99454" lon="0.06634">
        <ele>1840</ele>
        <time>2011-07-05T12:01:22Z</time>
      </trkpt>
      <trkpt lat="42.99471" lon="0.06622">
        <ele>1829</ele>
        <time>2011-07-05T12:01:48Z</time>
      </trkpt>
      <trkpt lat="42.99489" lon="0.06627">
        <ele>1820</ele>
        <time>2011-07-05T12:02:51Z</time>
      </trkpt>
      <trkpt lat="42.99487" lon="0.06599">
        <ele>1811</ele>
        <time>2011-07-05T12:05:17Z</time>
      </trkpt>
      <trkpt lat="42.99493" lon="0.06575">
        <ele>1802</ele>
        <time>2011-07-05T12:06:10Z</time>
      </trkpt>
      <trkpt lat="42.99491" lon="0.06549">
        <ele>1792</ele>
        <time>2011-07-05T12:06:22Z</time>
      </trkpt>
      <trkpt lat="42.99479" lon="0.06526">
        <ele>1785</ele>
        <time>2011-07-05T12:06:43Z</time>
      </trkpt>
      <trkpt lat="42.99465" lon="0.0651">
        <ele>1778</ele>
        <time>2011-07-05T12:08:11Z</time>
      </trkpt>
      <trkpt lat="42.99452" lon="0.06493">
        <ele>1774</ele>
        <time>2011-07-05T12:08:22Z</time>
      </trkpt>
      <trkpt lat="42.99439" lon="0.06468">
        <ele>1771</ele>
        <time>2011-07-05T12:08:32Z</time>
      </trkpt>
      <trkpt lat="42.99429" lon="0.06446">
        <ele>1769</ele>
        <time>2011-07-05T12:08:41Z</time>
      </trkpt>
      <trkpt lat="42.99416" lon="0.06428">
        <ele>1768</ele>
        <time>2011-07-05T12:08:49Z</time>
      </trkpt>
      <trkpt lat="42.99407" lon="0.06405">
        <ele>1766</ele>
        <time>2011-07-05T12:08:58Z</time>
      </trkpt>
      <trkpt lat="42.99406" lon="0.06379">
        <ele>1763</ele>
        <time>2011-07-05T12:09:08Z</time>
      </trkpt>
      <trkpt lat="42.99395" lon="0.06359">
        <ele>1760</ele>
        <time>2011-07-05T12:09:15Z</time>
      </trkpt>
      <trkpt lat="42.99392" lon="0.06332">
        <ele>1758</ele>
        <time>2011-07-05T12:09:24Z</time>
      </trkpt>
      <trkpt lat="42.99391" lon="0.06307">
        <ele>1756</ele>
        <time>2011-07-05T12:09:32Z</time>
      </trkpt>
      <trkpt lat="42.99388" lon="0.0628">
        <ele>1752</ele>
        <time>2011-07-05T12:09:41Z</time>
      </trkpt>
      <trkpt lat="42.9939" lon="0.06253">
        <ele>1748</ele>
        <time>2011-07-05T12:09:51Z</time>
      </trkpt>
      <trkpt lat="42.99392" lon="0.06226">
        <ele>1745</ele>
        <time>2011-07-05T12:10:00Z</time>
      </trkpt>
      <trkpt lat="42.99386" lon="0.06202">
        <ele>1741</ele>
        <time>2011-07-05T12:10:07Z</time>
      </trkpt>
      <trkpt lat="42.99377" lon="0.06174">
        <ele>1739</ele>
        <time>2011-07-05T12:10:16Z</time>
      </trkpt>
      <trkpt lat="42.99373" lon="0.0615">
        <ele>1738</ele>
        <time>2011-07-05T12:10:23Z</time>
      </trkpt>
      <trkpt lat="42.99368" lon="0.06125">
        <ele>1737</ele>
        <time>2011-07-05T12:10:31Z</time>
      </trkpt>
      <trkpt lat="42.99365" lon="0.06099">
        <ele>1737</ele>
        <time>2011-07-05T12:10:39Z</time>
      </trkpt>
      <trkpt lat="42.99362" lon="0.06075">
        <ele>1738</ele>
        <time>2011-07-05T12:10:46Z</time>
      </trkpt>
      <trkpt lat="42.99359" lon="0.06047">
        <ele>1735</ele>
        <time>2011-07-05T12:10:55Z</time>
      </trkpt>
      <trkpt lat="42.99357" lon="0.06021">
        <ele>1731</ele>
        <time>2011-07-05T12:11:04Z</time>
      </trkpt>
      <trkpt lat="42.99357" lon="0.05993">
        <ele>1726</ele>
        <time>2011-07-05T12:11:12Z</time>
      </trkpt>
      <trkpt lat="42.99355" lon="0.05965">
        <ele>1724</ele>
        <time>2011-07-05T12:11:21Z</time>
      </trkpt>
      <trkpt lat="42.99351" lon="0.05938">
        <ele>1721</ele>
        <time>2011-07-05T12:11:30Z</time>
      </trkpt>
      <trkpt lat="42.99349" lon="0.05911">
        <ele>1718</ele>
        <time>2011-07-05T12:11:40Z</time>
      </trkpt>
      <trkpt lat="42.99348" lon="0.05886">
        <ele>1713</ele>
        <time>2011-07-05T12:11:48Z</time>
      </trkpt>
      <trkpt lat="42.99347" lon="0.05859">
        <ele>1709</ele>
        <time>2011-07-05T12:11:55Z</time>
      </trkpt>
      <trkpt lat="42.99346" lon="0.05834">
        <ele>1704</ele>
        <time>2011-07-05T12:12:05Z</time>
      </trkpt>
      <trkpt lat="42.99345" lon="0.05809">
        <ele>1701</ele>
        <time>2011-07-05T12:12:16Z</time>
      </trkpt>
      <trkpt lat="42.99336" lon="0.05784">
        <ele>1696</ele>
        <time>2011-07-05T12:12:26Z</time>
      </trkpt>
      <trkpt lat="42.99331" lon="0.05758">
        <ele>1695</ele>
        <time>2011-07-05T12:12:34Z</time>
      </trkpt>
      <trkpt lat="42.99328" lon="0.05732">
        <ele>1694</ele>
        <time>2011-07-05T12:12:43Z</time>
      </trkpt>
      <trkpt lat="42.99322" lon="0.05707">
        <ele>1692</ele>
        <time>2011-07-05T12:13:05Z</time>
      </trkpt>
      <trkpt lat="42.99319" lon="0.05681">
        <ele>1690</ele>
        <time>2011-07-05T12:13:27Z</time>
      </trkpt>
      <trkpt lat="42.99327" lon="0.05657">
        <ele>1688</ele>
        <time>2011-07-05T12:13:40Z</time>
      </trkpt>
      <trkpt lat="42.99325" lon="0.05631">
        <ele>1689</ele>
        <time>2011-07-05T12:13:52Z</time>
      </trkpt>
      <trkpt lat="42.99322" lon="0.05604">
        <ele>1691</ele>
        <time>2011-07-05T12:14:10Z</time>
      </trkpt>
      <trkpt lat="42.99303" lon="0.05608">
        <ele>1694</ele>
        <time>2011-07-05T12:15:37Z</time>
      </trkpt>
      <trkpt lat="42.99287" lon="0.05621">
        <ele>1694</ele>
        <time>2011-07-05T12:15:50Z</time>
      </trkpt>
      <trkpt lat="42.99268" lon="0.05639">
        <ele>1691</ele>
        <time>2011-07-05T12:16:00Z</time>
      </trkpt>
      <trkpt lat="42.99253" lon="0.05654">
        <ele>1687</ele>
        <time>2011-07-05T12:16:07Z</time>
      </trkpt>
      <trkpt lat="42.99235" lon="0.05655">
        <ele>1686</ele>
        <time>2011-07-05T12:16:14Z</time>
      </trkpt>
      <trkpt lat="42.99215" lon="0.0566">
        <ele>1687</ele>
        <time>2011-07-05T12:16:22Z</time>
      </trkpt>
      <trkpt lat="42.99196" lon="0.05664">
        <ele>1687</ele>
        <time>2011-07-05T12:16:29Z</time>
      </trkpt>
      <trkpt lat="42.99177" lon="0.05673">
        <ele>1686</ele>
        <time>2011-07-05T12:16:39Z</time>
      </trkpt>
      <trkpt lat="42.99159" lon="0.05684">
        <ele>1685</ele>
        <time>2011-07-05T12:16:49Z</time>
      </trkpt>
      <trkpt lat="42.99141" lon="0.05688">
        <ele>1683</ele>
        <time>2011-07-05T12:17:00Z</time>
      </trkpt>
      <trkpt lat="42.99122" lon="0.0569">
        <ele>1679</ele>
        <time>2011-07-05T12:17:15Z</time>
      </trkpt>
      <trkpt lat="42.99107" lon="0.05704">
        <ele>1675</ele>
        <time>2011-07-05T12:17:24Z</time>
      </trkpt>
      <trkpt lat="42.99095" lon="0.05723">
        <ele>1672</ele>
        <time>2011-07-05T12:17:33Z</time>
      </trkpt>
      <trkpt lat="42.99083" lon="0.05743">
        <ele>1671</ele>
        <time>2011-07-05T12:17:42Z</time>
      </trkpt>
      <trkpt lat="42.99067" lon="0.05766">
        <ele>1672</ele>
        <time>2011-07-05T12:17:58Z</time>
      </trkpt>
      <trkpt lat="42.99052" lon="0.05787">
        <ele>1673</ele>
        <time>2011-07-05T12:18:11Z</time>
      </trkpt>
      <trkpt lat="42.99034" lon="0.05805">
        <ele>1675</ele>
        <time>2011-07-05T12:18:24Z</time>
      </trkpt>
      <trkpt lat="42.99024" lon="0.05826">
        <ele>1674</ele>
        <time>2011-07-05T12:18:42Z</time>
      </trkpt>
      <trkpt lat="42.99009" lon="0.05842">
        <ele>1673</ele>
        <time>2011-07-05T12:18:56Z</time>
      </trkpt>
      <trkpt lat="42.9899" lon="0.05848">
        <ele>1674</ele>
        <time>2011-07-05T12:19:13Z</time>
      </trkpt>
      <trkpt lat="42.9897" lon="0.0586">
        <ele>1678</ele>
        <time>2011-07-05T12:19:29Z</time>
      </trkpt>
      <trkpt lat="42.98952" lon="0.05867">
        <ele>1683</ele>
        <time>2011-07-05T12:19:44Z</time>
      </trkpt>
      <trkpt lat="42.98934" lon="0.05872">
        <ele>1688</ele>
        <time>2011-07-05T12:19:58Z</time>
      </trkpt>
      <trkpt lat="42.98915" lon="0.05871">
        <ele>1694</ele>
        <time>2011-07-05T12:20:16Z</time>
      </trkpt>
      <trkpt lat="42.98897" lon="0.05879">
        <ele>1699</ele>
        <time>2011-07-05T12:20:30Z</time>
      </trkpt>
      <trkpt lat="42.9888" lon="0.05893">
        <ele>1702</ele>
        <time>2011-07-05T12:20:47Z</time>
      </trkpt>
      <trkpt lat="42.98863" lon="0.05904">
        <ele>1708</ele>
        <time>2011-07-05T12:21:13Z</time>
      </trkpt>
      <trkpt lat="42.98852" lon="0.0588">
        <ele>1713</ele>
        <time>2011-07-05T12:21:39Z</time>
      </trkpt>
      <trkpt lat="42.98842" lon="0.05859">
        <ele>1717</ele>
        <time>2011-07-05T12:21:48Z</time>
      </trkpt>
      <trkpt lat="42.98824" lon="0.05853">
        <ele>1715</ele>
        <time>2011-07-05T12:22:02Z</time>
      </trkpt>
      <trkpt lat="42.98808" lon="0.05842">
        <ele>1715</ele>
        <time>2011-07-05T12:22:22Z</time>
      </trkpt>
      <trkpt lat="42.98791" lon="0.0583">
        <ele>1717</ele>
        <time>2011-07-05T12:23:28Z</time>
      </trkpt>
      <trkpt lat="42.98788" lon="0.05805">
        <ele>1722</ele>
        <time>2011-07-05T12:23:52Z</time>
      </trkpt>
      <trkpt lat="42.98779" lon="0.05783">
        <ele>1726</ele>
        <time>2011-07-05T12:24:00Z</time>
      </trkpt>
      <trkpt lat="42.98767" lon="0.05764">
        <ele>1728</ele>
        <time>2011-07-05T12:24:13Z</time>
      </trkpt>
      <trkpt lat="42.98753" lon="0.05742">
        <ele>1727</ele>
        <time>2011-07-05T12:24:29Z</time>
      </trkpt>
      <trkpt lat="42.98741" lon="0.05722">
        <ele>1727</ele>
        <time>2011-07-05T12:24:46Z</time>
      </trkpt>
      <trkpt lat="42.98727" lon="0.05704">
        <ele>1726</ele>
        <time>2011-07-05T12:24:56Z</time>
      </trkpt>
      <trkpt lat="42.98714" lon="0.05686">
        <ele>1726</ele>
        <time>2011-07-05T12:25:08Z</time>
      </trkpt>
      <trkpt lat="42.98695" lon="0.05686">
        <ele>1724</ele>
        <time>2011-07-05T12:25:24Z</time>
      </trkpt>
      <trkpt lat="42.98678" lon="0.05674">
        <ele>1725</ele>
        <time>2011-07-05T12:25:41Z</time>
      </trkpt>
      <trkpt lat="42.98663" lon="0.05659">
        <ele>1728</ele>
        <time>2011-07-05T12:25:57Z</time>
      </trkpt>
      <trkpt lat="42.98649" lon="0.0564">
        <ele>1734</ele>
        <time>2011-07-05T12:26:26Z</time>
      </trkpt>
      <trkpt lat="42.98629" lon="0.05628">
        <ele>1738</ele>
        <time>2011-07-05T12:26:39Z</time>
      </trkpt>
      <trkpt lat="42.98611" lon="0.05633">
        <ele>1739</ele>
        <time>2011-07-05T12:26:52Z</time>
      </trkpt>
      <trkpt lat="42.98592" lon="0.05633">
        <ele>1735</ele>
        <time>2011-07-05T12:27:10Z</time>
      </trkpt>
      <trkpt lat="42.98573" lon="0.05627">
        <ele>1730</ele>
        <time>2011-07-05T12:27:31Z</time>
      </trkpt>
      <trkpt lat="42.98555" lon="0.05628">
        <ele>1731</ele>
        <time>2011-07-05T12:27:50Z</time>
      </trkpt>
      <trkpt lat="42.98541" lon="0.05611">
        <ele>1736</ele>
        <time>2011-07-05T12:28:14Z</time>
      </trkpt>
      <trkpt lat="42.98523" lon="0.05593">
        <ele>1740</ele>
        <time>2011-07-05T12:28:49Z</time>
      </trkpt>
      <trkpt lat="42.98503" lon="0.05584">
        <ele>1740</ele>
        <time>2011-07-05T12:28:57Z</time>
      </trkpt>
      <trkpt lat="42.98485" lon="0.05574">
        <ele>1738</ele>
        <time>2011-07-05T12:29:05Z</time>
      </trkpt>
      <trkpt lat="42.98466" lon="0.05565">
        <ele>1734</ele>
        <time>2011-07-05T12:29:28Z</time>
      </trkpt>
      <trkpt lat="42.98448" lon="0.0557">
        <ele>1728</ele>
        <time>2011-07-05T12:29:38Z</time>
      </trkpt>
      <trkpt lat="42.98429" lon="0.0557">
        <ele>1721</ele>
        <time>2011-07-05T12:29:48Z</time>
      </trkpt>
      <trkpt lat="42.98411" lon="0.05567">
        <ele>1717</ele>
        <time>2011-07-05T12:29:59Z</time>
      </trkpt>
      <trkpt lat="42.98392" lon="0.05564">
        <ele>1714</ele>
        <time>2011-07-05T12:30:13Z</time>
      </trkpt>
      <trkpt lat="42.98374" lon="0.05556">
        <ele>1712</ele>
        <time>2011-07-05T12:30:22Z</time>
      </trkpt>
      <trkpt lat="42.98354" lon="0.05552">
        <ele>1709</ele>
        <time>2011-07-05T12:30:35Z</time>
      </trkpt>
      <trkpt lat="42.98336" lon="0.05552">
        <ele>1706</ele>
        <time>2011-07-05T12:30:46Z</time>
      </trkpt>
      <trkpt lat="42.98315" lon="0.05552">
        <ele>1703</ele>
        <time>2011-07-05T12:30:59Z</time>
      </trkpt>
      <trkpt lat="42.98298" lon="0.0556">
        <ele>1702</ele>
        <time>2011-07-05T12:31:08Z</time>
      </trkpt>
      <trkpt lat="42.9828" lon="0.0556">
        <ele>1703</ele>
        <time>2011-07-05T12:31:18Z</time>
      </trkpt>
      <trkpt lat="42.98261" lon="0.05556">
        <ele>1704</ele>
        <time>2011-07-05T12:31:31Z</time>
      </trkpt>
      <trkpt lat="42.9824" lon="0.05535">
        <ele>1707</ele>
        <time>2011-07-05T12:31:51Z</time>
      </trkpt>
      <trkpt lat="42.98228" lon="0.05518">
        <ele>1709</ele>
        <time>2011-07-05T12:32:17Z</time>
      </trkpt>
      <trkpt lat="42.98211" lon="0.05506">
        <ele>1711</ele>
        <time>2011-07-05T12:32:30Z</time>
      </trkpt>
      <trkpt lat="42.982" lon="0.05485">
        <ele>1713</ele>
        <time>2011-07-05T12:32:48Z</time>
      </trkpt>
      <trkpt lat="42.98205" lon="0.05461">
        <ele>1715</ele>
        <time>2011-07-05T12:33:00Z</time>
      </trkpt>
      <trkpt lat="42.98203" lon="0.05435">
        <ele>1716</ele>
        <time>2011-07-05T12:33:17Z</time>
      </trkpt>
      <trkpt lat="42.98204" lon="0.05409">
        <ele>1716</ele>
        <time>2011-07-05T12:33:30Z</time>
      </trkpt>
      <trkpt lat="42.98208" lon="0.05385">
        <ele>1714</ele>
        <time>2011-07-05T12:33:54Z</time>
      </trkpt>
      <trkpt lat="42.98219" lon="0.05365">
        <ele>1710</ele>
        <time>2011-07-05T12:34:09Z</time>
      </trkpt>
      <trkpt lat="42.98227" lon="0.05343">
        <ele>1708</ele>
        <time>2011-07-05T12:34:21Z</time>
      </trkpt>
      <trkpt lat="42.98236" lon="0.05321">
        <ele>1706</ele>
        <time>2011-07-05T12:34:41Z</time>
      </trkpt>
      <trkpt lat="42.98244" lon="0.05296">
        <ele>1707</ele>
        <time>2011-07-05T12:34:53Z</time>
      </trkpt>
      <trkpt lat="42.98245" lon="0.0527">
        <ele>1707</ele>
        <time>2011-07-05T12:35:09Z</time>
      </trkpt>
      <trkpt lat="42.98246" lon="0.05245">
        <ele>1706</ele>
        <time>2011-07-05T12:35:24Z</time>
      </trkpt>
      <trkpt lat="42.98251" lon="0.05222">
        <ele>1706</ele>
        <time>2011-07-05T12:35:37Z</time>
      </trkpt>
      <trkpt lat="42.98252" lon="0.05197">
        <ele>1709</ele>
        <time>2011-07-05T12:35:53Z</time>
      </trkpt>
      <trkpt lat="42.98245" lon="0.05174">
        <ele>1712</ele>
        <time>2011-07-05T12:36:11Z</time>
      </trkpt>
      <trkpt lat="42.98253" lon="0.05149">
        <ele>1714</ele>
        <time>2011-07-05T12:36:37Z</time>
      </trkpt>
      <trkpt lat="42.98248" lon="0.05125">
        <ele>1716</ele>
        <time>2011-07-05T12:37:05Z</time>
      </trkpt>
      <trkpt lat="42.98242" lon="0.051">
        <ele>1721</ele>
        <time>2011-07-05T12:38:38Z</time>
      </trkpt>
      <trkpt lat="42.98245" lon="0.05076">
        <ele>1726</ele>
        <time>2011-07-05T12:39:40Z</time>
      </trkpt>
      <trkpt lat="42.9826" lon="0.05061">
        <ele>1728</ele>
        <time>2011-07-05T12:39:54Z</time>
      </trkpt>
      <trkpt lat="42.98275" lon="0.05046">
        <ele>1729</ele>
        <time>2011-07-05T12:40:02Z</time>
      </trkpt>
      <trkpt lat="42.98283" lon="0.05021">
        <ele>1730</ele>
        <time>2011-07-05T12:40:11Z</time>
      </trkpt>
      <trkpt lat="42.98283" lon="0.0499">
        <ele>1730</ele>
        <time>2011-07-05T12:40:19Z</time>
      </trkpt>
      <trkpt lat="42.98281" lon="0.04965">
        <ele>1729</ele>
        <time>2011-07-05T12:40:27Z</time>
      </trkpt>
      <trkpt lat="42.98289" lon="0.04943">
        <ele>1728</ele>
        <time>2011-07-05T12:40:40Z</time>
      </trkpt>
      <trkpt lat="42.98305" lon="0.0493">
        <ele>1728</ele>
        <time>2011-07-05T12:40:52Z</time>
      </trkpt>
      <trkpt lat="42.9831" lon="0.04906">
        <ele>1729</ele>
        <time>2011-07-05T12:41:04Z</time>
      </trkpt>
      <trkpt lat="42.9831" lon="0.04881">
        <ele>1729</ele>
        <time>2011-07-05T12:41:13Z</time>
      </trkpt>
      <trkpt lat="42.98318" lon="0.04857">
        <ele>1729</ele>
        <time>2011-07-05T12:41:28Z</time>
      </trkpt>
      <trkpt lat="42.98328" lon="0.04837">
        <ele>1731</ele>
        <time>2011-07-05T12:41:42Z</time>
      </trkpt>
      <trkpt lat="42.98341" lon="0.04819">
        <ele>1734</ele>
        <time>2011-07-05T12:41:55Z</time>
      </trkpt>
      <trkpt lat="42.98352" lon="0.04798">
        <ele>1737</ele>
        <time>2011-07-05T12:42:13Z</time>
      </trkpt>
      <trkpt lat="42.98362" lon="0.04777">
        <ele>1739</ele>
        <time>2011-07-05T12:42:34Z</time>
      </trkpt>
      <trkpt lat="42.98372" lon="0.04757">
        <ele>1742</ele>
        <time>2011-07-05T12:42:59Z</time>
      </trkpt>
      <trkpt lat="42.98384" lon="0.04737">
        <ele>1749</ele>
        <time>2011-07-05T12:43:39Z</time>
      </trkpt>
      <trkpt lat="42.98402" lon="0.0472">
        <ele>1758</ele>
        <time>2011-07-05T12:44:00Z</time>
      </trkpt>
      <trkpt lat="42.98418" lon="0.04707">
        <ele>1768</ele>
        <time>2011-07-05T12:44:35Z</time>
      </trkpt>
      <trkpt lat="42.98438" lon="0.04704">
        <ele>1777</ele>
        <time>2011-07-05T12:44:54Z</time>
      </trkpt>
      <trkpt lat="42.98446" lon="0.04682">
        <ele>1786</ele>
        <time>2011-07-05T12:45:15Z</time>
      </trkpt>
      <trkpt lat="42.98446" lon="0.04654">
        <ele>1791</ele>
        <time>2011-07-05T12:45:31Z</time>
      </trkpt>
      <trkpt lat="42.98449" lon="0.04629">
        <ele>1795</ele>
        <time>2011-07-05T12:45:50Z</time>
      </trkpt>
      <trkpt lat="42.98441" lon="0.04607">
        <ele>1797</ele>
        <time>2011-07-05T12:46:06Z</time>
      </trkpt>
      <trkpt lat="42.98431" lon="0.04581">
        <ele>1796</ele>
        <time>2011-07-05T12:46:23Z</time>
      </trkpt>
      <trkpt lat="42.98418" lon="0.04553">
        <ele>1790</ele>
        <time>2011-07-05T12:46:36Z</time>
      </trkpt>
      <trkpt lat="42.98402" lon="0.04536">
        <ele>1784</ele>
        <time>2011-07-05T12:46:46Z</time>
      </trkpt>
      <trkpt lat="42.98391" lon="0.04511">
        <ele>1777</ele>
        <time>2011-07-05T12:47:02Z</time>
      </trkpt>
      <trkpt lat="42.98399" lon="0.04486">
        <ele>1771</ele>
        <time>2011-07-05T12:47:12Z</time>
      </trkpt>
      <trkpt lat="42.98408" lon="0.04465">
        <ele>1766</ele>
        <time>2011-07-05T12:47:20Z</time>
      </trkpt>
      <trkpt lat="42.98414" lon="0.04441">
        <ele>1761</ele>
        <time>2011-07-05T12:47:32Z</time>
      </trkpt>
      <trkpt lat="42.98423" lon="0.0442">
        <ele>1756</ele>
        <time>2011-07-05T12:47:54Z</time>
      </trkpt>
      <trkpt lat="42.98424" lon="0.04395">
        <ele>1751</ele>
        <time>2011-07-05T12:48:29Z</time>
      </trkpt>
      <trkpt lat="42.98418" lon="0.04371">
        <ele>1745</ele>
        <time>2011-07-05T12:48:40Z</time>
      </trkpt>
      <trkpt lat="42.98411" lon="0.04345">
        <ele>1740</ele>
        <time>2011-07-05T12:48:53Z</time>
      </trkpt>
      <trkpt lat="42.98401" lon="0.04322">
        <ele>1735</ele>
        <time>2011-07-05T12:49:06Z</time>
      </trkpt>
      <trkpt lat="42.98392" lon="0.043">
        <ele>1731</ele>
        <time>2011-07-05T12:49:18Z</time>
      </trkpt>
      <trkpt lat="42.9839" lon="0.04275">
        <ele>1731</ele>
        <time>2011-07-05T12:49:32Z</time>
      </trkpt>
      <trkpt lat="42.98385" lon="0.0425">
        <ele>1731</ele>
        <time>2011-07-05T12:49:48Z</time>
      </trkpt>
      <trkpt lat="42.98376" lon="0.04227">
        <ele>1733</ele>
        <time>2011-07-05T12:50:06Z</time>
      </trkpt>
      <trkpt lat="42.98363" lon="0.04205">
        <ele>1734</ele>
        <time>2011-07-05T12:50:18Z</time>
      </trkpt>
      <trkpt lat="42.98358" lon="0.0418">
        <ele>1734</ele>
        <time>2011-07-05T12:50:31Z</time>
      </trkpt>
      <trkpt lat="42.98364" lon="0.04155">
        <ele>1734</ele>
        <time>2011-07-05T12:50:52Z</time>
      </trkpt>
      <trkpt lat="42.98367" lon="0.04131">
        <ele>1735</ele>
        <time>2011-07-05T12:51:11Z</time>
      </trkpt>
      <trkpt lat="42.98365" lon="0.04106">
        <ele>1736</ele>
        <time>2011-07-05T12:51:25Z</time>
      </trkpt>
      <trkpt lat="42.98371" lon="0.04083">
        <ele>1737</ele>
        <time>2011-07-05T12:51:43Z</time>
      </trkpt>
      <trkpt lat="42.98362" lon="0.04056">
        <ele>1738</ele>
        <time>2011-07-05T12:52:02Z</time>
      </trkpt>
      <trkpt lat="42.98359" lon="0.04031">
        <ele>1742</ele>
        <time>2011-07-05T12:52:29Z</time>
      </trkpt>
      <trkpt lat="42.98362" lon="0.04007">
        <ele>1750</ele>
        <time>2011-07-05T12:53:08Z</time>
      </trkpt>
      <trkpt lat="42.98352" lon="0.03987">
        <ele>1757</ele>
        <time>2011-07-05T12:53:22Z</time>
      </trkpt>
      <trkpt lat="42.98336" lon="0.03973">
        <ele>1759</ele>
        <time>2011-07-05T12:53:35Z</time>
      </trkpt>
      <trkpt lat="42.9832" lon="0.03958">
        <ele>1755</ele>
        <time>2011-07-05T12:53:46Z</time>
      </trkpt>
      <trkpt lat="42.98303" lon="0.03937">
        <ele>1750</ele>
        <time>2011-07-05T12:53:59Z</time>
      </trkpt>
      <trkpt lat="42.98287" lon="0.03925">
        <ele>1747</ele>
        <time>2011-07-05T12:54:06Z</time>
      </trkpt>
      <trkpt lat="42.98272" lon="0.03911">
        <ele>1744</ele>
        <time>2011-07-05T12:54:15Z</time>
      </trkpt>
      <trkpt lat="42.98258" lon="0.03895">
        <ele>1741</ele>
        <time>2011-07-05T12:54:28Z</time>
      </trkpt>
      <trkpt lat="42.98247" lon="0.03873">
        <ele>1737</ele>
        <time>2011-07-05T12:54:40Z</time>
      </trkpt>
      <trkpt lat="42.98232" lon="0.03848">
        <ele>1734</ele>
        <time>2011-07-05T12:54:51Z</time>
      </trkpt>
      <trkpt lat="42.98216" lon="0.03838">
        <ele>1732</ele>
        <time>2011-07-05T12:54:59Z</time>
      </trkpt>
      <trkpt lat="42.982" lon="0.03823">
        <ele>1730</ele>
        <time>2011-07-05T12:55:08Z</time>
      </trkpt>
      <trkpt lat="42.98183" lon="0.03808">
        <ele>1728</ele>
        <time>2011-07-05T12:55:17Z</time>
      </trkpt>
      <trkpt lat="42.98165" lon="0.03793">
        <ele>1724</ele>
        <time>2011-07-05T12:55:30Z</time>
      </trkpt>
      <trkpt lat="42.98148" lon="0.03785">
        <ele>1718</ele>
        <time>2011-07-05T12:55:39Z</time>
      </trkpt>
      <trkpt lat="42.98129" lon="0.03779">
        <ele>1713</ele>
        <time>2011-07-05T12:55:48Z</time>
      </trkpt>
      <trkpt lat="42.98109" lon="0.03771">
        <ele>1710</ele>
        <time>2011-07-05T12:55:56Z</time>
      </trkpt>
      <trkpt lat="42.9809" lon="0.03769">
        <ele>1710</ele>
        <time>2011-07-05T12:56:04Z</time>
      </trkpt>
      <trkpt lat="42.98068" lon="0.03769">
        <ele>1710</ele>
        <time>2011-07-05T12:56:12Z</time>
      </trkpt>
      <trkpt lat="42.9805" lon="0.03772">
        <ele>1711</ele>
        <time>2011-07-05T12:56:19Z</time>
      </trkpt>
      <trkpt lat="42.98031" lon="0.03779">
        <ele>1710</ele>
        <time>2011-07-05T12:56:32Z</time>
      </trkpt>
      <trkpt lat="42.98013" lon="0.03785">
        <ele>1710</ele>
        <time>2011-07-05T12:56:43Z</time>
      </trkpt>
      <trkpt lat="42.97996" lon="0.03796">
        <ele>1709</ele>
        <time>2011-07-05T12:56:57Z</time>
      </trkpt>
      <trkpt lat="42.97977" lon="0.03786">
        <ele>1707</ele>
        <time>2011-07-05T12:57:10Z</time>
      </trkpt>
      <trkpt lat="42.97968" lon="0.03764">
        <ele>1704</ele>
        <time>2011-07-05T12:57:19Z</time>
      </trkpt>
      <trkpt lat="42.97951" lon="0.03747">
        <ele>1699</ele>
        <time>2011-07-05T12:57:27Z</time>
      </trkpt>
      <trkpt lat="42.97953" lon="0.03722">
        <ele>1696</ele>
        <time>2011-07-05T12:57:44Z</time>
      </trkpt>
      <trkpt lat="42.97958" lon="0.03698">
        <ele>1692</ele>
        <time>2011-07-05T12:58:14Z</time>
      </trkpt>
      <trkpt lat="42.97963" lon="0.03672">
        <ele>1690</ele>
        <time>2011-07-05T12:58:21Z</time>
      </trkpt>
      <trkpt lat="42.97962" lon="0.03645">
        <ele>1689</ele>
        <time>2011-07-05T12:58:28Z</time>
      </trkpt>
      <trkpt lat="42.97966" lon="0.03619">
        <ele>1688</ele>
        <time>2011-07-05T12:58:35Z</time>
      </trkpt>
      <trkpt lat="42.97966" lon="0.03595">
        <ele>1688</ele>
        <time>2011-07-05T12:58:45Z</time>
      </trkpt>
      <trkpt lat="42.97974" lon="0.0357">
        <ele>1686</ele>
        <time>2011-07-05T12:58:58Z</time>
      </trkpt>
      <trkpt lat="42.97985" lon="0.03549">
        <ele>1685</ele>
        <time>2011-07-05T12:59:14Z</time>
      </trkpt>
      <trkpt lat="42.97999" lon="0.03532">
        <ele>1685</ele>
        <time>2011-07-05T12:59:28Z</time>
      </trkpt>
      <trkpt lat="42.98009" lon="0.03509">
        <ele>1686</ele>
        <time>2011-07-05T12:59:43Z</time>
      </trkpt>
      <trkpt lat="42.98024" lon="0.03494">
        <ele>1688</ele>
        <time>2011-07-05T12:59:58Z</time>
      </trkpt>
      <trkpt lat="42.98037" lon="0.03476">
        <ele>1689</ele>
        <time>2011-07-05T13:00:12Z</time>
      </trkpt>
      <trkpt lat="42.9805" lon="0.03456">
        <ele>1690</ele>
        <time>2011-07-05T13:00:29Z</time>
      </trkpt>
      <trkpt lat="42.98061" lon="0.03435">
        <ele>1693</ele>
        <time>2011-07-05T13:00:45Z</time>
      </trkpt>
      <trkpt lat="42.98068" lon="0.03412">
        <ele>1697</ele>
        <time>2011-07-05T13:01:08Z</time>
      </trkpt>
      <trkpt lat="42.98084" lon="0.03397">
        <ele>1705</ele>
        <time>2011-07-05T13:01:34Z</time>
      </trkpt>
      <trkpt lat="42.981" lon="0.03385">
        <ele>1713</ele>
        <time>2011-07-05T13:01:49Z</time>
      </trkpt>
      <trkpt lat="42.98114" lon="0.03367">
        <ele>1720</ele>
        <time>2011-07-05T13:02:22Z</time>
      </trkpt>
      <trkpt lat="42.98121" lon="0.03343">
        <ele>1724</ele>
        <time>2011-07-05T13:02:35Z</time>
      </trkpt>
      <trkpt lat="42.98102" lon="0.03344">
        <ele>1726</ele>
        <time>2011-07-05T13:03:31Z</time>
      </trkpt>
      <trkpt lat="42.98083" lon="0.03347">
        <ele>1728</ele>
        <time>2011-07-05T13:03:45Z</time>
      </trkpt>
      <trkpt lat="42.98065" lon="0.03344">
        <ele>1732</ele>
        <time>2011-07-05T13:04:16Z</time>
      </trkpt>
      <trkpt lat="42.98046" lon="0.03343">
        <ele>1740</ele>
        <time>2011-07-05T13:04:57Z</time>
      </trkpt>
      <trkpt lat="42.9803" lon="0.03331">
        <ele>1748</ele>
        <time>2011-07-05T13:05:11Z</time>
      </trkpt>
      <trkpt lat="42.98011" lon="0.03328">
        <ele>1757</ele>
        <time>2011-07-05T13:05:26Z</time>
      </trkpt>
      <trkpt lat="42.97993" lon="0.03331">
        <ele>1762</ele>
        <time>2011-07-05T13:06:00Z</time>
      </trkpt>
      <trkpt lat="42.97974" lon="0.0333">
        <ele>1765</ele>
        <time>2011-07-05T13:06:14Z</time>
      </trkpt>
      <trkpt lat="42.97955" lon="0.03326">
        <ele>1765</ele>
        <time>2011-07-05T13:06:28Z</time>
      </trkpt>
      <trkpt lat="42.97936" lon="0.03324">
        <ele>1766</ele>
        <time>2011-07-05T13:06:37Z</time>
      </trkpt>
      <trkpt lat="42.97916" lon="0.03321">
        <ele>1766</ele>
        <time>2011-07-05T13:06:45Z</time>
      </trkpt>
      <trkpt lat="42.979" lon="0.03308">
        <ele>1767</ele>
        <time>2011-07-05T13:06:54Z</time>
      </trkpt>
      <trkpt lat="42.97881" lon="0.03299">
        <ele>1768</ele>
        <time>2011-07-05T13:07:04Z</time>
      </trkpt>
      <trkpt lat="42.97863" lon="0.03293">
        <ele>1769</ele>
        <time>2011-07-05T13:07:16Z</time>
      </trkpt>
      <trkpt lat="42.9784" lon="0.03285">
        <ele>1768</ele>
        <time>2011-07-05T13:07:28Z</time>
      </trkpt>
      <trkpt lat="42.97823" lon="0.03271">
        <ele>1766</ele>
        <time>2011-07-05T13:07:34Z</time>
      </trkpt>
      <trkpt lat="42.97814" lon="0.03248">
        <ele>1764</ele>
        <time>2011-07-05T13:07:42Z</time>
      </trkpt>
      <trkpt lat="42.97797" lon="0.03232">
        <ele>1763</ele>
        <time>2011-07-05T13:07:51Z</time>
      </trkpt>
      <trkpt lat="42.97778" lon="0.0323">
        <ele>1763</ele>
        <time>2011-07-05T13:07:59Z</time>
      </trkpt>
      <trkpt lat="42.97759" lon="0.03233">
        <ele>1762</ele>
        <time>2011-07-05T13:08:12Z</time>
      </trkpt>
      <trkpt lat="42.97739" lon="0.0324">
        <ele>1761</ele>
        <time>2011-07-05T13:08:25Z</time>
      </trkpt>
      <trkpt lat="42.9772" lon="0.03235">
        <ele>1761</ele>
        <time>2011-07-05T13:08:37Z</time>
      </trkpt>
      <trkpt lat="42.97705" lon="0.0322">
        <ele>1762</ele>
        <time>2011-07-05T13:08:53Z</time>
      </trkpt>
      <trkpt lat="42.97686" lon="0.03212">
        <ele>1765</ele>
        <time>2011-07-05T13:09:08Z</time>
      </trkpt>
      <trkpt lat="42.97668" lon="0.03215">
        <ele>1766</ele>
        <time>2011-07-05T13:09:19Z</time>
      </trkpt>
      <trkpt lat="42.9765" lon="0.03221">
        <ele>1767</ele>
        <time>2011-07-05T13:09:32Z</time>
      </trkpt>
      <trkpt lat="42.97632" lon="0.03219">
        <ele>1769</ele>
        <time>2011-07-05T13:09:46Z</time>
      </trkpt>
      <trkpt lat="42.97613" lon="0.03218">
        <ele>1770</ele>
        <time>2011-07-05T13:09:59Z</time>
      </trkpt>
      <trkpt lat="42.97596" lon="0.03228">
        <ele>1771</ele>
        <time>2011-07-05T13:10:14Z</time>
      </trkpt>
      <trkpt lat="42.97589" lon="0.03252">
        <ele>1772</ele>
        <time>2011-07-05T13:10:31Z</time>
      </trkpt>
      <trkpt lat="42.97582" lon="0.03284">
        <ele>1772</ele>
        <time>2011-07-05T13:10:43Z</time>
      </trkpt>
      <trkpt lat="42.9757" lon="0.03304">
        <ele>1772</ele>
        <time>2011-07-05T13:10:50Z</time>
      </trkpt>
      <trkpt lat="42.97556" lon="0.03322">
        <ele>1771</ele>
        <time>2011-07-05T13:10:58Z</time>
      </trkpt>
      <trkpt lat="42.97542" lon="0.03338">
        <ele>1769</ele>
        <time>2011-07-05T13:11:05Z</time>
      </trkpt>
      <trkpt lat="42.97525" lon="0.03348">
        <ele>1768</ele>
        <time>2011-07-05T13:11:13Z</time>
      </trkpt>
      <trkpt lat="42.97511" lon="0.03365">
        <ele>1768</ele>
        <time>2011-07-05T13:11:27Z</time>
      </trkpt>
      <trkpt lat="42.97495" lon="0.0338">
        <ele>1769</ele>
        <time>2011-07-05T13:11:45Z</time>
      </trkpt>
      <trkpt lat="42.97482" lon="0.03401">
        <ele>1771</ele>
        <time>2011-07-05T13:11:54Z</time>
      </trkpt>
      <trkpt lat="42.97469" lon="0.03419">
        <ele>1773</ele>
        <time>2011-07-05T13:12:02Z</time>
      </trkpt>
      <trkpt lat="42.97452" lon="0.03431">
        <ele>1774</ele>
        <time>2011-07-05T13:12:11Z</time>
      </trkpt>
      <trkpt lat="42.97435" lon="0.03443">
        <ele>1774</ele>
        <time>2011-07-05T13:12:20Z</time>
      </trkpt>
      <trkpt lat="42.97415" lon="0.03449">
        <ele>1774</ele>
        <time>2011-07-05T13:12:28Z</time>
      </trkpt>
      <trkpt lat="42.97396" lon="0.03442">
        <ele>1775</ele>
        <time>2011-07-05T13:12:36Z</time>
      </trkpt>
      <trkpt lat="42.97377" lon="0.03444">
        <ele>1776</ele>
        <time>2011-07-05T13:12:44Z</time>
      </trkpt>
      <trkpt lat="42.97361" lon="0.0346">
        <ele>1777</ele>
        <time>2011-07-05T13:12:56Z</time>
      </trkpt>
      <trkpt lat="42.97345" lon="0.03476">
        <ele>1776</ele>
        <time>2011-07-05T13:13:12Z</time>
      </trkpt>
      <trkpt lat="42.97332" lon="0.03493">
        <ele>1776</ele>
        <time>2011-07-05T13:13:24Z</time>
      </trkpt>
      <trkpt lat="42.97316" lon="0.03505">
        <ele>1776</ele>
        <time>2011-07-05T13:13:33Z</time>
      </trkpt>
      <trkpt lat="42.97298" lon="0.03515">
        <ele>1778</ele>
        <time>2011-07-05T13:13:41Z</time>
      </trkpt>
      <trkpt lat="42.97279" lon="0.03522">
        <ele>1778</ele>
        <time>2011-07-05T13:13:49Z</time>
      </trkpt>
      <trkpt lat="42.97253" lon="0.03531">
        <ele>1779</ele>
        <time>2011-07-05T13:13:58Z</time>
      </trkpt>
      <trkpt lat="42.97234" lon="0.03527">
        <ele>1779</ele>
        <time>2011-07-05T13:14:05Z</time>
      </trkpt>
      <trkpt lat="42.97216" lon="0.0353">
        <ele>1781</ele>
        <time>2011-07-05T13:14:12Z</time>
      </trkpt>
      <trkpt lat="42.97201" lon="0.03545">
        <ele>1782</ele>
        <time>2011-07-05T13:14:25Z</time>
      </trkpt>
      <trkpt lat="42.9718" lon="0.03552">
        <ele>1784</ele>
        <time>2011-07-05T13:14:38Z</time>
      </trkpt>
      <trkpt lat="42.97164" lon="0.03567">
        <ele>1786</ele>
        <time>2011-07-05T13:14:47Z</time>
      </trkpt>
      <trkpt lat="42.97148" lon="0.03586">
        <ele>1787</ele>
        <time>2011-07-05T13:14:56Z</time>
      </trkpt>
      <trkpt lat="42.97131" lon="0.03596">
        <ele>1788</ele>
        <time>2011-07-05T13:15:04Z</time>
      </trkpt>
      <trkpt lat="42.97111" lon="0.03597">
        <ele>1790</ele>
        <time>2011-07-05T13:15:18Z</time>
      </trkpt>
      <trkpt lat="42.97093" lon="0.03603">
        <ele>1793</ele>
        <time>2011-07-05T13:15:25Z</time>
      </trkpt>
      <trkpt lat="42.97074" lon="0.03607">
        <ele>1796</ele>
        <time>2011-07-05T13:15:36Z</time>
      </trkpt>
      <trkpt lat="42.97059" lon="0.03594">
        <ele>1797</ele>
        <time>2011-07-05T13:15:44Z</time>
      </trkpt>
      <trkpt lat="42.97036" lon="0.03583">
        <ele>1797</ele>
        <time>2011-07-05T13:15:56Z</time>
      </trkpt>
      <trkpt lat="42.97015" lon="0.03581">
        <ele>1795</ele>
        <time>2011-07-05T13:16:03Z</time>
      </trkpt>
      <trkpt lat="42.96996" lon="0.0358">
        <ele>1794</ele>
        <time>2011-07-05T13:16:09Z</time>
      </trkpt>
      <trkpt lat="42.96977" lon="0.0358">
        <ele>1794</ele>
        <time>2011-07-05T13:16:16Z</time>
      </trkpt>
      <trkpt lat="42.96957" lon="0.03576">
        <ele>1793</ele>
        <time>2011-07-05T13:16:23Z</time>
      </trkpt>
      <trkpt lat="42.96944" lon="0.03556">
        <ele>1790</ele>
        <time>2011-07-05T13:16:32Z</time>
      </trkpt>
      <trkpt lat="42.96928" lon="0.03542">
        <ele>1787</ele>
        <time>2011-07-05T13:16:40Z</time>
      </trkpt>
      <trkpt lat="42.96907" lon="0.03531">
        <ele>1784</ele>
        <time>2011-07-05T13:16:48Z</time>
      </trkpt>
      <trkpt lat="42.9689" lon="0.03524">
        <ele>1784</ele>
        <time>2011-07-05T13:16:54Z</time>
      </trkpt>
      <trkpt lat="42.96873" lon="0.03515">
        <ele>1785</ele>
        <time>2011-07-05T13:17:03Z</time>
      </trkpt>
      <trkpt lat="42.96848" lon="0.03508">
        <ele>1786</ele>
        <time>2011-07-05T13:17:14Z</time>
      </trkpt>
      <trkpt lat="42.96833" lon="0.03493">
        <ele>1786</ele>
        <time>2011-07-05T13:17:21Z</time>
      </trkpt>
      <trkpt lat="42.96824" lon="0.0347">
        <ele>1783</ele>
        <time>2011-07-05T13:17:31Z</time>
      </trkpt>
      <trkpt lat="42.96816" lon="0.03441">
        <ele>1779</ele>
        <time>2011-07-05T13:17:40Z</time>
      </trkpt>
      <trkpt lat="42.9681" lon="0.03417">
        <ele>1777</ele>
        <time>2011-07-05T13:17:49Z</time>
      </trkpt>
      <trkpt lat="42.96799" lon="0.03394">
        <ele>1777</ele>
        <time>2011-07-05T13:17:58Z</time>
      </trkpt>
      <trkpt lat="42.96782" lon="0.03378">
        <ele>1776</ele>
        <time>2011-07-05T13:18:06Z</time>
      </trkpt>
      <trkpt lat="42.96771" lon="0.03355">
        <ele>1776</ele>
        <time>2011-07-05T13:18:12Z</time>
      </trkpt>
      <trkpt lat="42.96763" lon="0.03332">
        <ele>1776</ele>
        <time>2011-07-05T13:18:19Z</time>
      </trkpt>
      <trkpt lat="42.96744" lon="0.03324">
        <ele>1775</ele>
        <time>2011-07-05T13:18:27Z</time>
      </trkpt>
      <trkpt lat="42.96721" lon="0.0335">
        <ele>1774</ele>
        <time>2011-07-05T13:19:08Z</time>
      </trkpt>
      <trkpt lat="42.96703" lon="0.03351">
        <ele>1773</ele>
        <time>2011-07-05T13:19:23Z</time>
      </trkpt>
      <trkpt lat="42.96684" lon="0.03354">
        <ele>1773</ele>
        <time>2011-07-05T13:19:31Z</time>
      </trkpt>
      <trkpt lat="42.96667" lon="0.03345">
        <ele>1773</ele>
        <time>2011-07-05T13:19:40Z</time>
      </trkpt>
      <trkpt lat="42.96647" lon="0.03337">
        <ele>1775</ele>
        <time>2011-07-05T13:19:52Z</time>
      </trkpt>
      <trkpt lat="42.96629" lon="0.03333">
        <ele>1778</ele>
        <time>2011-07-05T13:20:03Z</time>
      </trkpt>
      <trkpt lat="42.96609" lon="0.03325">
        <ele>1781</ele>
        <time>2011-07-05T13:20:10Z</time>
      </trkpt>
      <trkpt lat="42.96593" lon="0.03308">
        <ele>1785</ele>
        <time>2011-07-05T13:20:18Z</time>
      </trkpt>
      <trkpt lat="42.96576" lon="0.03297">
        <ele>1787</ele>
        <time>2011-07-05T13:20:28Z</time>
      </trkpt>
      <trkpt lat="42.96561" lon="0.03282">
        <ele>1787</ele>
        <time>2011-07-05T13:20:45Z</time>
      </trkpt>
      <trkpt lat="42.96546" lon="0.03266">
        <ele>1788</ele>
        <time>2011-07-05T13:20:56Z</time>
      </trkpt>
      <trkpt lat="42.96527" lon="0.03263">
        <ele>1788</ele>
        <time>2011-07-05T13:21:09Z</time>
      </trkpt>
      <trkpt lat="42.96508" lon="0.0327">
        <ele>1788</ele>
        <time>2011-07-05T13:21:22Z</time>
      </trkpt>
      <trkpt lat="42.96493" lon="0.03251">
        <ele>1789</ele>
        <time>2011-07-05T13:21:39Z</time>
      </trkpt>
      <trkpt lat="42.96473" lon="0.03241">
        <ele>1790</ele>
        <time>2011-07-05T13:21:51Z</time>
      </trkpt>
      <trkpt lat="42.96454" lon="0.03238">
        <ele>1792</ele>
        <time>2011-07-05T13:21:58Z</time>
      </trkpt>
      <trkpt lat="42.96435" lon="0.03228">
        <ele>1792</ele>
        <time>2011-07-05T13:22:06Z</time>
      </trkpt>
      <trkpt lat="42.96418" lon="0.03216">
        <ele>1791</ele>
        <time>2011-07-05T13:22:13Z</time>
      </trkpt>
      <trkpt lat="42.96412" lon="0.03192">
        <ele>1789</ele>
        <time>2011-07-05T13:22:20Z</time>
      </trkpt>
      <trkpt lat="42.96404" lon="0.03168">
        <ele>1787</ele>
        <time>2011-07-05T13:22:28Z</time>
      </trkpt>
      <trkpt lat="42.96394" lon="0.03137">
        <ele>1785</ele>
        <time>2011-07-05T13:22:37Z</time>
      </trkpt>
      <trkpt lat="42.96385" lon="0.03111">
        <ele>1782</ele>
        <time>2011-07-05T13:22:44Z</time>
      </trkpt>
      <trkpt lat="42.96379" lon="0.03087">
        <ele>1778</ele>
        <time>2011-07-05T13:22:53Z</time>
      </trkpt>
      <trkpt lat="42.96378" lon="0.03056">
        <ele>1774</ele>
        <time>2011-07-05T13:23:03Z</time>
      </trkpt>
      <trkpt lat="42.96373" lon="0.03027">
        <ele>1771</ele>
        <time>2011-07-05T13:23:11Z</time>
      </trkpt>
      <trkpt lat="42.9636" lon="0.03006">
        <ele>1769</ele>
        <time>2011-07-05T13:23:19Z</time>
      </trkpt>
      <trkpt lat="42.96351" lon="0.02976">
        <ele>1768</ele>
        <time>2011-07-05T13:23:29Z</time>
      </trkpt>
      <trkpt lat="42.96359" lon="0.02951">
        <ele>1768</ele>
        <time>2011-07-05T13:23:37Z</time>
      </trkpt>
      <trkpt lat="42.96369" lon="0.02926">
        <ele>1768</ele>
        <time>2011-07-05T13:23:44Z</time>
      </trkpt>
      <trkpt lat="42.96374" lon="0.02902">
        <ele>1768</ele>
        <time>2011-07-05T13:23:50Z</time>
      </trkpt>
      <trkpt lat="42.96378" lon="0.02877">
        <ele>1769</ele>
        <time>2011-07-05T13:23:57Z</time>
      </trkpt>
      <trkpt lat="42.96383" lon="0.02852">
        <ele>1770</ele>
        <time>2011-07-05T13:24:03Z</time>
      </trkpt>
      <trkpt lat="42.96389" lon="0.02829">
        <ele>1772</ele>
        <time>2011-07-05T13:24:10Z</time>
      </trkpt>
      <trkpt lat="42.96393" lon="0.02801">
        <ele>1773</ele>
        <time>2011-07-05T13:24:21Z</time>
      </trkpt>
      <trkpt lat="42.96396" lon="0.02775">
        <ele>1775</ele>
        <time>2011-07-05T13:24:34Z</time>
      </trkpt>
      <trkpt lat="42.96394" lon="0.02749">
        <ele>1777</ele>
        <time>2011-07-05T13:24:47Z</time>
      </trkpt>
      <trkpt lat="42.96392" lon="0.02724">
        <ele>1779</ele>
        <time>2011-07-05T13:24:55Z</time>
      </trkpt>
      <trkpt lat="42.96393" lon="0.02698">
        <ele>1780</ele>
        <time>2011-07-05T13:25:07Z</time>
      </trkpt>
      <trkpt lat="42.96395" lon="0.02673">
        <ele>1779</ele>
        <time>2011-07-05T13:25:21Z</time>
      </trkpt>
      <trkpt lat="42.96399" lon="0.02647">
        <ele>1779</ele>
        <time>2011-07-05T13:25:34Z</time>
      </trkpt>
      <trkpt lat="42.96399" lon="0.02622">
        <ele>1778</ele>
        <time>2011-07-05T13:25:41Z</time>
      </trkpt>
      <trkpt lat="42.96407" lon="0.02599">
        <ele>1775</ele>
        <time>2011-07-05T13:25:53Z</time>
      </trkpt>
      <trkpt lat="42.9641" lon="0.02574">
        <ele>1771</ele>
        <time>2011-07-05T13:26:11Z</time>
      </trkpt>
      <trkpt lat="42.96416" lon="0.02547">
        <ele>1768</ele>
        <time>2011-07-05T13:26:19Z</time>
      </trkpt>
      <trkpt lat="42.96421" lon="0.02522">
        <ele>1767</ele>
        <time>2011-07-05T13:26:27Z</time>
      </trkpt>
      <trkpt lat="42.96424" lon="0.02497">
        <ele>1766</ele>
        <time>2011-07-05T13:26:42Z</time>
      </trkpt>
      <trkpt lat="42.96434" lon="0.02472">
        <ele>1764</ele>
        <time>2011-07-05T13:26:58Z</time>
      </trkpt>
      <trkpt lat="42.96445" lon="0.0245">
        <ele>1759</ele>
        <time>2011-07-05T13:27:08Z</time>
      </trkpt>
      <trkpt lat="42.96457" lon="0.02431">
        <ele>1755</ele>
        <time>2011-07-05T13:27:15Z</time>
      </trkpt>
      <trkpt lat="42.96471" lon="0.02402">
        <ele>1749</ele>
        <time>2011-07-05T13:27:24Z</time>
      </trkpt>
      <trkpt lat="42.9648" lon="0.02379">
        <ele>1746</ele>
        <time>2011-07-05T13:27:30Z</time>
      </trkpt>
      <trkpt lat="42.96493" lon="0.02353">
        <ele>1743</ele>
        <time>2011-07-05T13:27:37Z</time>
      </trkpt>
      <trkpt lat="42.96502" lon="0.0233">
        <ele>1741</ele>
        <time>2011-07-05T13:27:42Z</time>
      </trkpt>
      <trkpt lat="42.96515" lon="0.02302">
        <ele>1739</ele>
        <time>2011-07-05T13:27:50Z</time>
      </trkpt>
      <trkpt lat="42.96522" lon="0.02279">
        <ele>1737</ele>
        <time>2011-07-05T13:27:56Z</time>
      </trkpt>
      <trkpt lat="42.96532" lon="0.02258">
        <ele>1736</ele>
        <time>2011-07-05T13:28:09Z</time>
      </trkpt>
      <trkpt lat="42.9654" lon="0.02235">
        <ele>1735</ele>
        <time>2011-07-05T13:28:19Z</time>
      </trkpt>
      <trkpt lat="42.96554" lon="0.02216">
        <ele>1734</ele>
        <time>2011-07-05T13:28:26Z</time>
      </trkpt>
      <trkpt lat="42.96565" lon="0.02195">
        <ele>1734</ele>
        <time>2011-07-05T13:28:32Z</time>
      </trkpt>
      <trkpt lat="42.96574" lon="0.02174">
        <ele>1734</ele>
        <time>2011-07-05T13:28:38Z</time>
      </trkpt>
      <trkpt lat="42.96586" lon="0.02154">
        <ele>1734</ele>
        <time>2011-07-05T13:28:45Z</time>
      </trkpt>
      <trkpt lat="42.96595" lon="0.02132">
        <ele>1734</ele>
        <time>2011-07-05T13:28:52Z</time>
      </trkpt>
      <trkpt lat="42.96608" lon="0.02111">
        <ele>1733</ele>
        <time>2011-07-05T13:28:59Z</time>
      </trkpt>
      <trkpt lat="42.96743" lon="0.01931">
        <ele>1729</ele>
        <time>2011-07-05T13:30:08Z</time>
      </trkpt>
      <trkpt lat="42.96758" lon="0.01915">
        <ele>1722</ele>
        <time>2011-07-05T13:30:15Z</time>
      </trkpt>
      <trkpt lat="42.96771" lon="0.01896">
        <ele>1714</ele>
        <time>2011-07-05T13:30:25Z</time>
      </trkpt>
      <trkpt lat="42.96781" lon="0.01876">
        <ele>1708</ele>
        <time>2011-07-05T13:30:33Z</time>
      </trkpt>
      <trkpt lat="42.9678" lon="0.01843">
        <ele>1704</ele>
        <time>2011-07-05T13:30:41Z</time>
      </trkpt>
      <trkpt lat="42.96787" lon="0.01818">
        <ele>1699</ele>
        <time>2011-07-05T13:30:48Z</time>
      </trkpt>
      <trkpt lat="42.96802" lon="0.01798">
        <ele>1695</ele>
        <time>2011-07-05T13:30:55Z</time>
      </trkpt>
      <trkpt lat="42.96814" lon="0.01779">
        <ele>1691</ele>
        <time>2011-07-05T13:31:01Z</time>
      </trkpt>
      <trkpt lat="42.96825" lon="0.01758">
        <ele>1690</ele>
        <time>2011-07-05T13:31:15Z</time>
      </trkpt>
      <trkpt lat="42.96836" lon="0.01736">
        <ele>1689</ele>
        <time>2011-07-05T13:31:26Z</time>
      </trkpt>
      <trkpt lat="42.96847" lon="0.01717">
        <ele>1689</ele>
        <time>2011-07-05T13:31:49Z</time>
      </trkpt>
      <trkpt lat="42.96855" lon="0.01695">
        <ele>1687</ele>
        <time>2011-07-05T13:32:08Z</time>
      </trkpt>
      <trkpt lat="42.96863" lon="0.01673">
        <ele>1685</ele>
        <time>2011-07-05T13:32:18Z</time>
      </trkpt>
      <trkpt lat="42.96882" lon="0.01667">
        <ele>1684</ele>
        <time>2011-07-05T13:32:29Z</time>
      </trkpt>
      <trkpt lat="42.96902" lon="0.01666">
        <ele>1683</ele>
        <time>2011-07-05T13:32:41Z</time>
      </trkpt>
      <trkpt lat="42.96919" lon="0.01658">
        <ele>1679</ele>
        <time>2011-07-05T13:32:53Z</time>
      </trkpt>
      <trkpt lat="42.96941" lon="0.01647">
        <ele>1673</ele>
        <time>2011-07-05T13:33:04Z</time>
      </trkpt>
      <trkpt lat="42.96958" lon="0.01638">
        <ele>1668</ele>
        <time>2011-07-05T13:33:14Z</time>
      </trkpt>
      <trkpt lat="42.96984" lon="0.01584">
        <ele>1662</ele>
        <time>2011-07-05T13:34:15Z</time>
      </trkpt>
    </trkseg>
  </trk>
</gpx>